Time;durP1;ratioP1;P1;durP2;ratioP2;P2;SDS_P1;SDS_P2;PMS_P1;PMS_P2;Temp;Humidity;BMP_temperature;BMP_pressure;BME280_temperature;BME280_humidity;BME280_pressure;Samples;Min_cycle;Max_cycle;Signal;HPM_P1;HPM_P2
2021/08/01 00:01:26;;;;;;;;;;;17.00;99.90;;;;;;1894788;76;20212;-70
2021/08/01 00:03:53;;;;;;;;;;;17.00;99.90;;;;;;1890252;76;20204;-69
2021/08/01 00:06:20;;;;;;;;;;;16.90;99.90;;;;;;1876706;76;20177;-70
2021/08/01 00:08:47;;;;;;;;;;;16.90;99.90;;;;;;1870835;76;20171;-70
2021/08/01 00:11:14;;;;;;;;;;;16.90;99.90;;;;;;1882680;76;20478;-71
2021/08/01 00:13:40;;;;;;;;;;;16.90;99.90;;;;;;1888431;76;20317;-70
2021/08/01 00:16:07;;;;;;;;;;;16.80;99.90;;;;;;1891938;76;20205;-70
2021/08/01 00:18:34;;;;;;;;;;;16.80;99.90;;;;;;1888554;76;20892;-70
2021/08/01 00:21:01;;;;;;;;;;;16.80;99.90;;;;;;1884721;76;20170;-69
2021/08/01 00:23:28;;;;;;;;;;;16.90;99.90;;;;;;1894040;76;20247;-70
2021/08/01 00:25:56;;;;;;;;;;;16.80;99.90;;;;;;1893025;76;21409;-70
2021/08/01 00:28:23;;;;;;;;;;;16.80;99.90;;;;;;1894143;76;20170;-71
2021/08/01 00:30:50;;;;;;;;;;;16.80;99.90;;;;;;1883853;76;20197;-71
2021/08/01 00:33:17;;;;;;;;;;;16.70;99.90;;;;;;1892588;76;20216;-71
2021/08/01 00:35:44;;;;;;;;;;;16.80;99.90;;;;;;1877639;76;20119;-71
2021/08/01 00:38:11;;;;;;;;;;;16.70;99.90;;;;;;1886481;76;20214;-71
2021/08/01 00:40:38;;;;;;;;;;;16.70;99.90;;;;;;1883264;76;20162;-71
2021/08/01 00:43:05;;;;;;;;;;;16.70;99.90;;;;;;1864123;77;20187;-69
2021/08/01 00:45:31;;;;;;;;;;;16.70;99.90;;;;;;1897129;74;20184;-69
2021/08/01 00:47:58;;;;;;;;;;;16.80;99.90;;;;;;1871121;76;20121;-69
2021/08/01 00:50:25;;;;;;;;;;;16.80;99.90;;;;;;1888132;76;20218;-69
2021/08/01 00:52:53;;;;;;;;;;;16.80;99.90;;;;;;1870966;76;20469;-69
2021/08/01 00:55:20;;;;;;;;;;;16.80;99.90;;;;;;1866644;76;20425;-69
2021/08/01 00:57:46;;;;;;;;;;;16.90;99.90;;;;;;1893895;74;20411;-70
2021/08/01 01:00:24;;;;;;;;;;;16.90;99.90;;;;;;1899569;74;20212;-70
2021/08/01 01:02:43;;;;;;;;;;;16.90;99.90;;;;;;1883511;76;21209;-69
2021/08/01 01:05:11;;;;;;;;;;;16.90;99.90;;;;;;1863974;76;20233;-70
2021/08/01 01:07:40;;;;;;;;;;;16.80;99.90;;;;;;1891621;76;20169;-70
2021/08/01 01:10:11;;;;;;;;;;;16.80;99.90;;;;;;1889172;76;20122;-70
2021/08/01 01:12:42;;;;;;;;;;;16.80;99.90;;;;;;1881502;76;20184;-70
2021/08/01 01:15:11;;;;;;;;;;;16.80;99.90;;;;;;1841469;76;20181;-69
2021/08/01 01:17:39;;;;;;;;;;;16.80;99.90;;;;;;1877392;76;20253;-70
2021/08/01 01:20:11;;;;;;;;;;;16.70;99.90;;;;;;1864461;76;20208;-69
2021/08/01 01:22:41;;;;;;;;;;;16.70;99.90;;;;;;1877514;74;20305;-69
2021/08/01 01:25:11;;;;;;;;;;;16.60;99.90;;;;;;1895441;76;20215;-71
2021/08/01 01:27:45;;;;;;;;;;;16.60;99.90;;;;;;1892351;76;20162;-70
2021/08/01 01:30:13;;;;;;;;;;;16.70;99.90;;;;;;1866762;76;20199;-69
2021/08/01 01:32:48;;;;;;;;;;;16.70;99.90;;;;;;1871706;77;20183;-69
2021/08/01 01:35:18;;;;;;;;;;;16.60;99.90;;;;;;1882980;76;20134;-69
2021/08/01 01:37:46;;;;;;;;;;;16.60;99.90;;;;;;1886204;76;20441;-69
2021/08/01 01:40:14;;;;;;;;;;;16.70;99.90;;;;;;1868566;76;20127;-69
2021/08/01 01:42:41;;;;;;;;;;;16.70;99.90;;;;;;1871664;77;20125;-69
2021/08/01 01:45:08;;;;;;;;;;;16.70;99.90;;;;;;1896299;76;20122;-69
2021/08/01 01:47:35;;;;;;;;;;;16.80;99.90;;;;;;1895525;76;20419;-69
2021/08/01 01:50:02;;;;;;;;;;;16.60;99.90;;;;;;1868322;74;20401;-69
2021/08/01 01:52:29;;;;;;;;;;;16.70;99.90;;;;;;1867099;76;20129;-69
2021/08/01 01:54:57;;;;;;;;;;;16.70;99.90;;;;;;1866346;76;20221;-69
2021/08/01 01:57:23;;;;;;;;;;;16.70;99.90;;;;;;1870308;76;20110;-69
2021/08/01 01:59:50;;;;;;;;;;;16.60;99.90;;;;;;1873616;76;20441;-68
2021/08/01 02:02:17;;;;;;;;;;;16.70;99.90;;;;;;1866194;76;20184;-69
2021/08/01 02:04:44;;;;;;;;;;;16.70;99.90;;;;;;1868214;76;20195;-68
2021/08/01 02:07:11;;;;;;;;;;;16.60;99.90;;;;;;1864535;76;20136;-68
2021/08/01 02:09:57;;;;;;;;;;;16.60;99.90;;;;;;1879439;76;20179;-68
2021/08/01 02:12:28;;;;;;;;;;;16.60;99.90;;;;;;1892591;76;20302;-70
2021/08/01 02:14:59;;;;;;;;;;;16.60;99.90;;;;;;1884808;75;20180;-70
2021/08/01 02:17:34;;;;;;;;;;;16.60;99.90;;;;;;1863480;76;20445;-70
2021/08/01 02:20:02;;;;;;;;;;;16.60;99.90;;;;;;1880462;76;20166;-69
2021/08/01 02:22:30;;;;;;;;;;;16.70;99.90;;;;;;1885983;76;20150;-69
2021/08/01 02:24:57;;;;;;;;;;;16.70;99.90;;;;;;1894716;76;20181;-69
2021/08/01 02:27:24;;;;;;;;;;;16.80;99.90;;;;;;1895580;76;20157;-69
2021/08/01 02:29:51;;;;;;;;;;;16.70;99.90;;;;;;1894475;75;20159;-70
2021/08/01 02:32:19;;;;;;;;;;;16.80;99.90;;;;;;1893782;76;20178;-69
2021/08/01 02:34:46;;;;;;;;;;;16.80;99.90;;;;;;1893453;76;20119;-69
2021/08/01 02:37:14;;;;;;;;;;;16.80;99.90;;;;;;1894782;76;20263;-69
2021/08/01 02:39:41;;;;;;;;;;;16.80;99.90;;;;;;1888032;74;20240;-69
2021/08/01 02:42:09;;;;;;;;;;;16.80;99.90;;;;;;1879615;75;20217;-69
2021/08/01 02:44:37;;;;;;;;;;;16.70;99.90;;;;;;1870723;76;20196;-69
2021/08/01 02:47:05;;;;;;;;;;;16.70;99.90;;;;;;1889931;76;20166;-68
2021/08/01 02:49:33;;;;;;;;;;;16.60;99.90;;;;;;1894495;75;20424;-69
2021/08/01 02:52:03;;;;;;;;;;;16.70;99.90;;;;;;1870822;77;20269;-70
2021/08/01 02:54:31;;;;;;;;;;;16.70;99.90;;;;;;1898966;74;20120;-70
2021/08/01 02:56:59;;;;;;;;;;;16.80;99.90;;;;;;1893125;76;20173;-70
2021/08/01 02:59:27;;;;;;;;;;;16.70;99.90;;;;;;1861162;76;20111;-70
2021/08/01 03:01:55;;;;;;;;;;;16.80;99.90;;;;;;1884119;76;20186;-70
2021/08/01 03:04:23;;;;;;;;;;;16.70;99.90;;;;;;1871653;76;20289;-70
2021/08/01 03:06:50;;;;;;;;;;;16.70;99.90;;;;;;1893350;76;20228;-70
2021/08/01 03:09:17;;;;;;;;;;;16.60;99.90;;;;;;1885852;76;20136;-70
2021/08/01 03:11:44;;;;;;;;;;;16.60;99.90;;;;;;1881675;76;20188;-70
2021/08/01 03:14:12;;;;;;;;;;;16.60;99.90;;;;;;1888580;76;20228;-69
2021/08/01 03:16:39;;;;;;;;;;;16.70;99.90;;;;;;1890225;76;20186;-70
2021/08/01 03:19:06;;;;;;;;;;;16.50;99.90;;;;;;1893220;76;20527;-70
2021/08/01 03:21:33;;;;;;;;;;;16.50;99.90;;;;;;1870679;77;20164;-70
2021/08/01 03:23:59;;;;;;;;;;;16.60;99.90;;;;;;1894466;74;20458;-70
2021/08/01 03:26:26;;;;;;;;;;;16.60;99.90;;;;;;1906925;73;20210;-69
2021/08/01 03:28:55;;;;;;;;;;;16.60;99.90;;;;;;1929356;74;20210;-69
2021/08/01 03:31:22;;;;;;;;;;;16.60;99.90;;;;;;1920934;74;20124;-68
2021/08/01 03:33:48;;;;;;;;;;;16.70;99.90;;;;;;1933181;74;20152;-69
2021/08/01 03:36:15;;;;;;;;;;;16.70;99.90;;;;;;1922637;73;20115;-69
2021/08/01 03:38:42;;;;;;;;;;;16.70;99.90;;;;;;1917460;73;20124;-68
2021/08/01 03:41:09;;;;;;;;;;;16.70;99.90;;;;;;1933347;73;20165;-68
2021/08/01 03:43:36;;;;;;;;;;;16.70;99.90;;;;;;1910140;74;20175;-69
2021/08/01 03:46:02;;;;;;;;;;;16.60;99.90;;;;;;1916650;74;20120;-68
2021/08/01 03:48:29;;;;;;;;;;;16.60;99.90;;;;;;1929492;73;20124;-69
2021/08/01 03:50:56;;;;;;;;;;;16.50;99.90;;;;;;1952565;73;20391;-68
2021/08/01 03:53:23;;;;;;;;;;;16.50;99.90;;;;;;1944558;73;20172;-67
2021/08/01 03:55:50;;;;;;;;;;;16.60;99.90;;;;;;1936131;73;20171;-69
2021/08/01 03:58:16;;;;;;;;;;;16.40;99.90;;;;;;1933177;74;20163;-67
2021/08/01 04:00:47;;;;;;;;;;;16.50;99.90;;;;;;1946801;73;20149;-69
2021/08/01 04:03:14;;;;;;;;;;;16.50;99.90;;;;;;1943121;73;20166;-69
2021/08/01 04:05:41;;;;;;;;;;;16.60;99.90;;;;;;1930034;73;20209;-69
2021/08/01 04:08:08;;;;;;;;;;;16.60;99.90;;;;;;1925586;73;20277;-70
2021/08/01 04:10:35;;;;;;;;;;;16.60;99.90;;;;;;1925864;73;20139;-70
2021/08/01 04:13:02;;;;;;;;;;;16.50;99.90;;;;;;1920656;73;20191;-69
2021/08/01 04:15:28;;;;;;;;;;;16.50;99.90;;;;;;1919347;73;20126;-68
2021/08/01 04:17:55;;;;;;;;;;;16.40;99.90;;;;;;1915683;73;20135;-68
2021/08/01 04:20:22;;;;;;;;;;;16.50;99.90;;;;;;1935773;73;20185;-70
2021/08/01 04:22:52;;;;;;;;;;;16.50;99.90;;;;;;1911928;74;20117;-68
2021/08/01 04:25:19;;;;;;;;;;;16.40;99.90;;;;;;1945763;73;20159;-69
2021/08/01 04:27:46;;;;;;;;;;;16.50;99.90;;;;;;1908591;73;20440;-69
2021/08/01 04:30:13;;;;;;;;;;;16.40;99.90;;;;;;1935770;73;20162;-69
2021/08/01 04:32:40;;;;;;;;;;;16.50;99.90;;;;;;1932625;73;20328;-69
2021/08/01 04:35:07;;;;;;;;;;;16.50;99.90;;;;;;1941462;73;20172;-69
2021/08/01 04:37:34;;;;;;;;;;;16.50;99.90;;;;;;1922085;74;20188;-68
2021/08/01 04:40:01;;;;;;;;;;;16.40;99.90;;;;;;1952661;73;20172;-69
2021/08/01 04:42:28;;;;;;;;;;;16.30;99.90;;;;;;1930815;73;20440;-68
2021/08/01 04:44:55;;;;;;;;;;;16.40;99.90;;;;;;1934299;73;20187;-69
2021/08/01 04:47:21;;;;;;;;;;;16.50;99.90;;;;;;1932594;73;20452;-68
2021/08/01 04:49:49;;;;;;;;;;;16.40;99.90;;;;;;1928370;73;20164;-69
2021/08/01 04:52:16;;;;;;;;;;;16.50;99.90;;;;;;1921767;74;20116;-68
2021/08/01 04:54:43;;;;;;;;;;;16.50;99.90;;;;;;1929860;73;20176;-69
2021/08/01 04:57:10;;;;;;;;;;;16.50;99.90;;;;;;1930447;73;20665;-68
2021/08/01 04:59:37;;;;;;;;;;;16.40;99.90;;;;;;1915273;74;20464;-70
2021/08/01 05:02:04;;;;;;;;;;;16.40;99.90;;;;;;1929991;73;20174;-68
2021/08/01 05:04:31;;;;;;;;;;;16.50;99.90;;;;;;1930138;73;20264;-68
2021/08/01 05:06:57;;;;;;;;;;;16.50;99.90;;;;;;1920416;73;20172;-69
2021/08/01 05:09:24;;;;;;;;;;;16.50;99.90;;;;;;1929945;73;20160;-68
2021/08/01 05:11:51;;;;;;;;;;;16.50;99.90;;;;;;1932606;74;20175;-69
2021/08/01 05:14:18;;;;;;;;;;;16.50;99.90;;;;;;1920570;73;20132;-69
2021/08/01 05:16:45;;;;;;;;;;;16.50;99.90;;;;;;1932259;73;20171;-68
2021/08/01 05:19:11;;;;;;;;;;;16.50;99.90;;;;;;1932960;73;20237;-67
2021/08/01 05:21:38;;;;;;;;;;;16.50;99.90;;;;;;1920570;74;20144;-68
2021/08/01 05:24:05;;;;;;;;;;;16.50;99.90;;;;;;1937069;73;20209;-68
2021/08/01 05:26:32;;;;;;;;;;;16.60;99.90;;;;;;1931679;73;20179;-69
2021/08/01 05:28:59;;;;;;;;;;;16.50;99.90;;;;;;1938608;73;20172;-69
2021/08/01 05:31:26;;;;;;;;;;;16.40;99.90;;;;;;1911826;74;20152;-69
2021/08/01 05:33:52;;;;;;;;;;;16.50;99.90;;;;;;1927429;73;20171;-68
2021/08/01 05:36:19;;;;;;;;;;;16.50;99.90;;;;;;1921871;74;20171;-69
2021/08/01 05:38:46;;;;;;;;;;;16.50;99.90;;;;;;1913912;73;20219;-68
2021/08/01 05:41:15;;;;;;;;;;;16.50;99.90;;;;;;1923654;74;20183;-69
2021/08/01 05:43:43;;;;;;;;;;;16.60;99.90;;;;;;1943825;73;20508;-68
2021/08/01 05:46:10;;;;;;;;;;;16.60;99.90;;;;;;1932655;73;20456;-69
2021/08/01 05:48:37;;;;;;;;;;;16.50;99.90;;;;;;1930225;73;20152;-69
2021/08/01 05:51:08;;;;;;;;;;;16.50;99.90;;;;;;1925110;74;20213;-68
2021/08/01 05:53:34;;;;;;;;;;;16.50;99.90;;;;;;1941425;73;20231;-68
2021/08/01 05:56:08;;;;;;;;;;;16.50;99.90;;;;;;1940797;73;20163;-69
2021/08/01 05:58:35;;;;;;;;;;;16.50;99.90;;;;;;1941358;73;20521;-68
2021/08/01 06:01:03;;;;;;;;;;;16.50;99.90;;;;;;1943071;73;20171;-70
2021/08/01 06:03:30;;;;;;;;;;;16.50;99.90;;;;;;1909720;73;20433;-69
2021/08/01 06:05:57;;;;;;;;;;;16.60;99.90;;;;;;1928656;73;20156;-68
2021/08/01 06:08:23;;;;;;;;;;;16.60;99.90;;;;;;1933174;73;20531;-68
2021/08/01 06:10:50;;;;;;;;;;;16.60;99.90;;;;;;1927062;74;20124;-69
2021/08/01 06:13:17;;;;;;;;;;;16.60;99.90;;;;;;1934932;73;20464;-69
2021/08/01 06:15:44;;;;;;;;;;;16.60;99.90;;;;;;1934162;74;20171;-69
2021/08/01 06:18:11;;;;;;;;;;;16.60;99.90;;;;;;1933245;73;20524;-68
2021/08/01 06:20:37;;;;;;;;;;;16.60;99.90;;;;;;1927825;73;20238;-68
2021/08/01 06:23:04;;;;;;;;;;;16.60;99.90;;;;;;1928971;73;20242;-69
2021/08/01 06:25:32;;;;;;;;;;;16.60;99.90;;;;;;1931410;73;20484;-69
2021/08/01 06:27:58;;;;;;;;;;;16.60;99.90;;;;;;1932831;73;20172;-69
2021/08/01 06:30:25;;;;;;;;;;;16.60;99.90;;;;;;1935014;73;20243;-69
2021/08/01 06:32:52;;;;;;;;;;;16.70;99.90;;;;;;1936101;73;20187;-70
2021/08/01 06:35:19;;;;;;;;;;;16.70;99.90;;;;;;1931548;73;20128;-70
2021/08/01 06:37:45;;;;;;;;;;;16.70;99.90;;;;;;1932954;73;20296;-68
2021/08/01 06:40:12;;;;;;;;;;;16.80;99.90;;;;;;1947326;73;20242;-69
2021/08/01 06:42:39;;;;;;;;;;;16.80;99.90;;;;;;1932087;73;20128;-67
2021/08/01 06:45:06;;;;;;;;;;;16.80;99.90;;;;;;1931904;73;20158;-68
2021/08/01 06:47:33;;;;;;;;;;;16.80;99.90;;;;;;1938506;73;20163;-68
2021/08/01 06:50:00;;;;;;;;;;;16.80;99.90;;;;;;1933376;73;20630;-68
2021/08/01 06:52:26;;;;;;;;;;;16.90;99.90;;;;;;1935955;73;20213;-68
2021/08/01 06:54:53;;;;;;;;;;;16.90;99.90;;;;;;1937113;73;20440;-69
2021/08/01 06:57:21;;;;;;;;;;;17.00;99.90;;;;;;1940720;73;20179;-67
2021/08/01 06:59:48;;;;;;;;;;;17.00;99.90;;;;;;1938035;73;20154;-69
2021/08/01 07:02:15;;;;;;;;;;;17.00;99.90;;;;;;1934662;73;20163;-69
2021/08/01 07:04:41;;;;;;;;;;;17.00;99.90;;;;;;1943164;73;20148;-69
2021/08/01 07:07:08;;;;;;;;;;;17.00;99.90;;;;;;1955006;72;20269;-70
2021/08/01 07:09:40;;;;;;;;;;;17.00;99.90;;;;;;1931985;73;20460;-69
2021/08/01 07:12:03;;;;;;;;;;;17.10;99.90;;;;;;1928031;73;20212;-69
2021/08/01 07:14:30;;;;;;;;;;;17.10;99.90;;;;;;1924577;73;20449;-67
2021/08/01 07:16:58;;;;;;;;;;;17.10;99.90;;;;;;1934191;73;20163;-68
2021/08/01 07:19:25;;;;;;;;;;;17.10;99.90;;;;;;1930245;73;20215;-67
2021/08/01 07:21:51;;;;;;;;;;;17.10;99.90;;;;;;1929228;73;20206;-67
2021/08/01 07:24:18;;;;;;;;;;;17.20;99.90;;;;;;1940870;73;20257;-70
2021/08/01 07:26:48;;;;;;;;;;;17.20;99.90;;;;;;1950457;73;20173;-68
2021/08/01 07:29:15;;;;;;;;;;;17.20;99.90;;;;;;1923169;73;20209;-67
2021/08/01 07:31:41;;;;;;;;;;;17.30;99.90;;;;;;1932368;73;20183;-68
2021/08/01 07:34:08;;;;;;;;;;;17.30;99.90;;;;;;1924366;74;20167;-69
2021/08/01 07:36:35;;;;;;;;;;;17.40;99.90;;;;;;1933049;73;20163;-69
2021/08/01 07:39:02;;;;;;;;;;;17.30;99.90;;;;;;1932041;74;20187;-68
2021/08/01 07:41:29;;;;;;;;;;;17.40;99.90;;;;;;1928603;74;20202;-69
2021/08/01 07:43:56;;;;;;;;;;;17.40;99.90;;;;;;1914835;74;20184;-68
2021/08/01 07:46:22;;;;;;;;;;;17.40;99.90;;;;;;1907673;74;20163;-69
2021/08/01 07:48:49;;;;;;;;;;;17.50;99.90;;;;;;1932595;74;20171;-69
2021/08/01 07:51:16;;;;;;;;;;;17.50;99.90;;;;;;1930153;74;20210;-69
2021/08/01 07:53:43;;;;;;;;;;;17.50;99.90;;;;;;1929292;74;20183;-69
2021/08/01 07:56:09;;;;;;;;;;;17.50;99.90;;;;;;1933998;74;20171;-72
2021/08/01 07:58:36;;;;;;;;;;;17.50;99.90;;;;;;1910679;74;20180;-70
2021/08/01 08:01:03;;;;;;;;;;;17.50;99.90;;;;;;1905641;74;20175;-71
2021/08/01 08:03:30;;;;;;;;;;;17.40;99.90;;;;;;1930004;73;20140;-69
2021/08/01 08:05:58;;;;;;;;;;;17.50;99.90;;;;;;1934359;73;20172;-71
2021/08/01 08:08:25;;;;;;;;;;;17.40;99.90;;;;;;1931806;74;20168;-68
2021/08/01 08:10:51;;;;;;;;;;;17.40;99.90;;;;;;1905865;74;20187;-71
2021/08/01 08:13:18;;;;;;;;;;;17.40;99.90;;;;;;1919814;73;20157;-71
2021/08/01 08:15:45;;;;;;;;;;;17.50;99.90;;;;;;1925403;73;20188;-69
2021/08/01 08:18:12;;;;;;;;;;;17.50;99.90;;;;;;1930431;74;20164;-71
2021/08/01 08:20:38;;;;;;;;;;;17.50;99.90;;;;;;1929210;74;20273;-68
2021/08/01 08:23:05;;;;;;;;;;;17.60;99.90;;;;;;1926249;73;20183;-71
2021/08/01 08:25:32;;;;;;;;;;;17.70;99.90;;;;;;1921020;73;20172;-71
2021/08/01 08:27:59;;;;;;;;;;;17.70;99.90;;;;;;1918331;74;20144;-70
2021/08/01 08:30:26;;;;;;;;;;;17.80;99.90;;;;;;1923842;73;20140;-72
2021/08/01 08:32:53;;;;;;;;;;;17.80;99.90;;;;;;1909366;74;20176;-70
2021/08/01 08:35:20;;;;;;;;;;;17.90;99.90;;;;;;1934214;74;20171;-71
2021/08/01 08:37:47;;;;;;;;;;;18.00;99.90;;;;;;1933401;73;20167;-71
2021/08/01 08:40:14;;;;;;;;;;;17.90;99.90;;;;;;1930449;74;20175;-71
2021/08/01 08:42:43;;;;;;;;;;;17.90;99.90;;;;;;1932326;74;20121;-71
2021/08/01 08:45:11;;;;;;;;;;;18.00;99.90;;;;;;1919008;74;20531;-69
2021/08/01 08:47:39;;;;;;;;;;;18.00;99.90;;;;;;1904108;74;20164;-69
2021/08/01 08:50:07;;;;;;;;;;;18.00;99.90;;;;;;1911804;74;20187;-71
2021/08/01 08:52:35;;;;;;;;;;;18.00;99.90;;;;;;1932350;74;20176;-68
2021/08/01 08:55:03;;;;;;;;;;;18.20;99.90;;;;;;1931905;74;20468;-70
2021/08/01 08:57:34;;;;;;;;;;;18.30;99.90;;;;;;1907931;74;20562;-70
2021/08/01 09:00:02;;;;;;;;;;;18.40;99.90;;;;;;1902100;75;20153;-71
2021/08/01 09:02:29;;;;;;;;;;;18.50;99.90;;;;;;1906474;74;20182;-68
2021/08/01 09:04:57;;;;;;;;;;;18.50;99.90;;;;;;1929642;74;20205;-68
2021/08/01 09:07:24;;;;;;;;;;;18.50;99.90;;;;;;1930295;74;20105;-69
2021/08/01 09:09:51;;;;;;;;;;;18.50;99.90;;;;;;1925471;74;20133;-69
2021/08/01 09:12:18;;;;;;;;;;;18.40;99.90;;;;;;1921771;74;20124;-69
2021/08/01 09:14:46;;;;;;;;;;;18.40;99.90;;;;;;1926395;74;20113;-69
2021/08/01 09:17:13;;;;;;;;;;;18.50;99.90;;;;;;1927915;74;20115;-68
2021/08/01 09:19:46;;;;;;;;;;;18.60;99.90;;;;;;1935188;74;20116;-68
2021/08/01 09:22:16;;;;;;;;;;;18.60;99.90;;;;;;1931843;73;20105;-68
2021/08/01 09:24:44;;;;;;;;;;;18.70;99.90;;;;;;1921706;74;20223;-68
2021/08/01 09:27:13;;;;;;;;;;;18.80;99.90;;;;;;1906272;74;20239;-69
2021/08/01 09:29:50;;;;;;;;;;;18.80;99.90;;;;;;1940570;71;20182;-71
2021/08/01 09:32:17;;;;;;;;;;;18.90;99.90;;;;;;1962256;73;20182;-72
2021/08/01 09:34:48;;;;;;;;;;;18.90;99.90;;;;;;1962143;71;20773;-72
2021/08/01 09:37:16;;;;;;;;;;;18.90;99.90;;;;;;1951709;72;20202;-73
2021/08/01 09:39:43;;;;;;;;;;;18.90;99.90;;;;;;1940411;72;20188;-73
2021/08/01 09:42:11;;;;;;;;;;;18.90;99.90;;;;;;1923548;73;20446;-73
2021/08/01 09:44:39;;;;;;;;;;;18.80;99.90;;;;;;1951909;73;20195;-73
2021/08/01 09:47:06;;;;;;;;;;;18.80;99.90;;;;;;1954236;73;20155;-73
2021/08/01 09:49:33;;;;;;;;;;;18.80;99.90;;;;;;1951335;72;20205;-73
2021/08/01 09:52:04;;;;;;;;;;;18.70;99.90;;;;;;1921346;73;20517;-73
2021/08/01 09:54:47;;;;;;;;;;;18.70;99.90;;;;;;1919024;75;20157;-73
2021/08/01 09:57:22;;;;;;;;;;;18.70;99.90;;;;;;1944458;73;20413;-72
2021/08/01 09:59:49;;;;;;;;;;;18.70;99.90;;;;;;1953953;72;20127;-71
2021/08/01 10:02:17;;;;;;;;;;;18.70;99.90;;;;;;1949162;73;20172;-72
2021/08/01 10:04:45;;;;;;;;;;;18.80;99.90;;;;;;1931296;73;20189;-72
2021/08/01 10:07:13;;;;;;;;;;;18.80;99.90;;;;;;1932015;73;20112;-72
2021/08/01 10:09:43;;;;;;;;;;;18.80;99.90;;;;;;1951240;73;20470;-72
2021/08/01 10:12:11;;;;;;;;;;;18.80;99.90;;;;;;1944643;73;20272;-72
2021/08/01 10:14:38;;;;;;;;;;;18.90;99.90;;;;;;1954853;73;20120;-72
2021/08/01 10:17:05;;;;;;;;;;;19.10;99.90;;;;;;1946144;73;20452;-72
2021/08/01 10:19:33;;;;;;;;;;;19.30;99.90;;;;;;1954869;72;20388;-72
2021/08/01 10:22:01;;;;;;;;;;;19.50;99.90;;;;;;1947359;73;20463;-72
2021/08/01 10:24:29;;;;;;;;;;;19.60;99.90;;;;;;1954995;73;20436;-72
2021/08/01 10:26:57;;;;;;;;;;;19.50;99.90;;;;;;1953709;73;20197;-72
2021/08/01 10:29:26;;;;;;;;;;;19.50;99.90;;;;;;1954594;72;20381;-72
2021/08/01 10:32:05;;;;;;;;;;;19.50;99.90;;;;;;1955672;73;20159;-72
2021/08/01 10:34:39;;;;;;;;;;;19.50;99.90;;;;;;1928920;73;20174;-72
2021/08/01 10:37:08;;;;;;;;;;;19.80;99.90;;;;;;1950446;73;20465;-72
2021/08/01 10:39:36;;;;;;;;;;;20.00;99.90;;;;;;1919079;73;20161;-72
2021/08/01 10:42:04;;;;;;;;;;;20.30;99.90;;;;;;1919332;73;20199;-72
2021/08/01 10:44:31;;;;;;;;;;;20.50;99.90;;;;;;1938439;72;20118;-72
2021/08/01 10:46:58;;;;;;;;;;;20.40;99.90;;;;;;1925185;73;20125;-72
2021/08/01 10:49:25;;;;;;;;;;;20.40;99.90;;;;;;1954947;72;20578;-73
2021/08/01 10:51:52;;;;;;;;;;;20.20;99.90;;;;;;1921882;73;20176;-72
2021/08/01 10:54:24;;;;;;;;;;;20.10;99.90;;;;;;1934594;74;20137;-72
2021/08/01 10:57:09;;;;;;;;;;;20.00;99.90;;;;;;1959905;72;20668;-72
2021/08/01 10:59:46;;;;;;;;;;;20.00;99.90;;;;;;1955644;72;20108;-72
2021/08/01 11:02:13;;;;;;;;;;;19.90;99.90;;;;;;1952637;73;20127;-74
2021/08/01 11:04:43;;;;;;;;;;;19.90;99.90;;;;;;1929969;73;20170;-72
2021/08/01 11:07:09;;;;;;;;;;;19.80;99.90;;;;;;1953545;72;20211;-72
2021/08/01 11:09:36;;;;;;;;;;;19.70;99.90;;;;;;1953483;73;20162;-74
2021/08/01 11:12:25;;;;;;;;;;;19.50;99.90;;;;;;1946017;73;20172;-72
2021/08/01 11:14:53;;;;;;;;;;;19.50;99.90;;;;;;1920420;73;20465;-73
2021/08/01 11:17:22;;;;;;;;;;;19.40;99.90;;;;;;1933113;73;20264;-73
2021/08/01 11:19:49;;;;;;;;;;;19.30;99.90;;;;;;1938162;73;20112;-73
2021/08/01 11:22:34;;;;;;;;;;;19.10;99.90;;;;;;1950266;73;20190;-73
2021/08/01 11:25:20;;;;;;;;;;;18.90;99.90;;;;;;1939003;73;20786;-73
2021/08/01 11:28:05;;;;;;;;;;;18.40;99.90;;;;;;1943794;73;20147;-71
2021/08/01 11:30:52;;;;;;;;;;;18.20;99.90;;;;;;1919404;75;20243;-71
2021/08/01 11:33:42;;;;;;;;;;;18.10;99.90;;;;;;1921168;73;20118;-72
2021/08/01 11:36:13;;;;;;;;;;;18.00;99.90;;;;;;1950376;73;20201;-72
2021/08/01 11:38:41;;;;;;;;;;;18.00;99.90;;;;;;1947929;72;20155;-72
2021/08/01 11:41:08;;;;;;;;;;;17.80;99.90;;;;;;1947351;73;20179;-73
2021/08/01 11:43:35;;;;;;;;;;;17.70;99.90;;;;;;1939456;73;20123;-73
2021/08/01 11:46:03;;;;;;;;;;;17.70;99.90;;;;;;1947666;73;20325;-72
2021/08/01 11:48:30;;;;;;;;;;;17.70;99.90;;;;;;1949784;72;20465;-73
2021/08/01 11:50:57;;;;;;;;;;;17.70;99.90;;;;;;1946267;74;20456;-73
2021/08/01 11:53:25;;;;;;;;;;;17.70;99.90;;;;;;1937669;73;20181;-72
2021/08/01 11:55:59;;;;;;;;;;;17.70;99.90;;;;;;1940884;73;20163;-72
2021/08/01 11:58:22;;;;;;;;;;;17.60;99.90;;;;;;1946836;72;20475;-72
2021/08/01 12:00:50;;;;;;;;;;;17.50;99.90;;;;;;1954983;73;20253;-73
2021/08/01 12:03:18;;;;;;;;;;;17.50;99.90;;;;;;1942019;73;20320;-72
2021/08/01 12:05:47;;;;;;;;;;;17.40;99.90;;;;;;1945464;73;20175;-73
2021/08/01 12:08:28;;;;;;;;;;;17.40;99.90;;;;;;1924072;73;20169;-73
2021/08/01 12:11:11;;;;;;;;;;;17.30;99.90;;;;;;1920272;73;20213;-72
2021/08/01 12:13:38;;;;;;;;;;;17.30;99.90;;;;;;1936180;74;20163;-73
2021/08/01 12:16:15;;;;;;;;;;;17.50;99.90;;;;;;1929766;73;20173;-72
2021/08/01 12:18:42;;;;;;;;;;;17.50;99.90;;;;;;1913383;74;20165;-72
2021/08/01 12:21:27;;;;;;;;;;;17.60;99.90;;;;;;1926096;73;20196;-71
2021/08/01 12:23:54;;;;;;;;;;;17.50;99.90;;;;;;1949366;73;20160;-70
2021/08/01 12:26:37;;;;;;;;;;;17.60;99.90;;;;;;1961484;72;20170;-69
2021/08/01 12:29:03;;;;;;;;;;;17.60;99.90;;;;;;1950035;73;20267;-70
2021/08/01 12:31:31;;;;;;;;;;;17.50;99.90;;;;;;1949513;73;20233;-70
2021/08/01 12:33:58;;;;;;;;;;;17.50;99.90;;;;;;1936301;73;20195;-70
2021/08/01 12:36:25;;;;;;;;;;;17.50;99.90;;;;;;1931884;73;20193;-70
2021/08/01 12:38:52;;;;;;;;;;;17.50;99.90;;;;;;1938175;73;20175;-70
2021/08/01 12:41:22;;;;;;;;;;;17.60;99.90;;;;;;1944235;73;20202;-70
2021/08/01 12:43:50;;;;;;;;;;;17.60;99.90;;;;;;1928720;72;20167;-71
2021/08/01 12:46:20;;;;;;;;;;;17.60;99.90;;;;;;1948280;73;20218;-71
2021/08/01 12:48:47;;;;;;;;;;;17.70;99.90;;;;;;1936654;73;20175;-71
2021/08/01 12:51:14;;;;;;;;;;;17.70;99.90;;;;;;1934218;73;20173;-70
2021/08/01 12:53:42;;;;;;;;;;;17.70;99.90;;;;;;1951555;72;20167;-71
2021/08/01 12:56:10;;;;;;;;;;;17.70;99.90;;;;;;1953813;72;20196;-71
2021/08/01 12:58:39;;;;;;;;;;;17.80;99.90;;;;;;1941050;72;20415;-71
2021/08/01 13:01:06;;;;;;;;;;;17.80;99.90;;;;;;1948118;72;20218;-73
2021/08/01 13:03:34;;;;;;;;;;;17.90;99.90;;;;;;1954588;73;20174;-70
2021/08/01 13:06:01;;;;;;;;;;;17.90;99.90;;;;;;1951246;72;20209;-72
2021/08/01 13:08:35;;;;;;;;;;;18.00;99.90;;;;;;1932614;73;20114;-71
2021/08/01 13:11:02;;;;;;;;;;;18.00;99.90;;;;;;1939417;73;20312;-70
2021/08/01 13:13:29;;;;;;;;;;;18.10;99.90;;;;;;1945419;73;20260;-69
2021/08/01 13:16:00;;;;;;;;;;;18.10;99.90;;;;;;1938549;72;20185;-68
2021/08/01 13:18:28;;;;;;;;;;;18.10;99.90;;;;;;1949339;72;20155;-71
2021/08/01 13:20:55;;;;;;;;;;;18.10;99.90;;;;;;1944540;74;20214;-70
2021/08/01 13:23:39;;;;;;;;;;;18.10;99.90;;;;;;1936643;72;20179;-70
2021/08/01 13:26:23;;;;;;;;;;;18.10;99.90;;;;;;1952061;73;20159;-70
2021/08/01 13:28:54;;;;;;;;;;;18.20;99.90;;;;;;1954959;73;20492;-70
2021/08/01 13:31:23;;;;;;;;;;;18.10;99.90;;;;;;1945976;73;20171;-70
2021/08/01 13:33:56;;;;;;;;;;;18.10;99.90;;;;;;1931676;73;20179;-71
2021/08/01 13:36:23;;;;;;;;;;;18.10;99.90;;;;;;1945066;72;20168;-71
2021/08/01 13:39:00;;;;;;;;;;;18.10;99.90;;;;;;1961499;73;20163;-70
2021/08/01 13:41:27;;;;;;;;;;;18.20;99.90;;;;;;1954863;72;20179;-70
2021/08/01 13:44:12;;;;;;;;;;;18.10;99.90;;;;;;1931555;73;20163;-70
2021/08/01 13:46:39;;;;;;;;;;;18.20;99.90;;;;;;1936662;72;20173;-70
2021/08/01 13:49:06;;;;;;;;;;;18.10;99.90;;;;;;1922969;73;20270;-70
2021/08/01 13:51:33;;;;;;;;;;;18.00;99.90;;;;;;1951194;72;20450;-71
2021/08/01 13:54:00;;;;;;;;;;;18.00;99.90;;;;;;1954883;73;20565;-72
2021/08/01 13:56:28;;;;;;;;;;;18.00;99.90;;;;;;1948568;72;20158;-71
2021/08/01 13:58:55;;;;;;;;;;;18.00;99.90;;;;;;1954353;72;20452;-71
2021/08/01 14:01:24;;;;;;;;;;;18.10;99.90;;;;;;1948401;72;20738;-71
2021/08/01 14:03:51;;;;;;;;;;;18.10;99.90;;;;;;1946365;72;20163;-71
2021/08/01 14:06:19;;;;;;;;;;;18.10;99.90;;;;;;1950565;73;20253;-72
2021/08/01 14:08:46;;;;;;;;;;;18.20;99.90;;;;;;1953923;72;20179;-71
2021/08/01 14:11:13;;;;;;;;;;;18.20;99.90;;;;;;1941636;73;20166;-71
2021/08/01 14:13:40;;;;;;;;;;;18.20;99.90;;;;;;1928826;73;20128;-71
2021/08/01 14:16:06;;;;;;;;;;;18.20;99.90;;;;;;1922827;73;20834;-71
2021/08/01 14:18:33;;;;;;;;;;;18.20;99.90;;;;;;1949200;72;20179;-71
2021/08/01 14:21:00;;;;;;;;;;;18.20;99.90;;;;;;1947537;72;20444;-71
2021/08/01 14:23:27;;;;;;;;;;;18.30;99.90;;;;;;1954763;72;20191;-71